Time,TemperatureF,DewpointF,PressureIn,WindDirection,WindDirectionDegrees,WindSpeedMPH,WindSpeedGustMPH,Humidity,HourlyPrecipIn,Conditions,Clouds,dailyrainin,SoftwareType,DateUTC
2013-08-29 00:00:00,62.8,62.8,29.97,North,357,2.5,4.9,100,0.00,,,0.00,VWS V14.01,2013-08-29 04:00:00,
2013-08-29 00:02:00,62.8,62.8,29.97,North,357,2.5,4.7,100,0.00,,,0.00,VWS V14.01,2013-08-29 04:02:00,
2013-08-29 00:04:00,62.8,62.8,29.97,North,357,2.5,2.5,100,0.00,,,0.00,VWS V14.01,2013-08-29 04:04:00,
2013-08-29 00:10:00,62.8,62.8,29.97,North,357,2.5,2.5,100,0.00,,,0.00,VWS V14.01,2013-08-29 04:10:00,
2013-08-29 00:14:00,62.7,62.7,29.97,ENE,58,2.5,2.9,100,0.00,,,0.00,VWS V14.01,2013-08-29 04:14:00,
2013-08-29 00:20:00,62.5,62.5,29.97,ENE,58,2.5,2.5,100,0.00,,,0.00,VWS V14.01,2013-08-29 04:20:00,
2013-08-29 00:26:00,62.6,62.6,29.97,North,357,2.5,5.5,100,0.00,,,0.00,VWS V14.01,2013-08-29 04:26:00,
2013-08-29 00:32:00,62.7,62.7,29.97,North,357,2.5,2.5,100,0.00,,,0.00,VWS V14.01,2013-08-29 04:32:00,
2013-08-29 00:38:00,62.7,62.7,29.97,WNW,291,2.5,2.5,100,0.00,,,0.00,VWS V14.01,2013-08-29 04:38:00,
2013-08-29 00:44:00,62.5,62.5,29.97,WNW,297,2.5,5.5,100,0.00,,,0.00,VWS V14.01,2013-08-29 04:44:00,
2013-08-29 00:48:00,62.6,62.6,29.97,NW,315,2.5,2.9,100,0.00,,,0.00,VWS V14.01,2013-08-29 04:48:00,
2013-08-29 00:54:00,62.6,62.6,29.97,West,277,2.5,2.5,100,0.00,,,0.00,VWS V14.01,2013-08-29 04:54:00,
2013-08-29 00:56:00,62.7,62.7,29.97,West,277,2.5,2.5,100,0.00,,,0.00,VWS V14.01,2013-08-29 04:56:00,
2013-08-29 01:02:00,62.7,62.7,29.97,West,277,2.5,2.5,100,0.00,,,0.00,VWS V14.01,2013-08-29 05:02:00,
2013-08-29 01:08:00,62.7,62.7,29.97,NE,34,2.5,3.1,100,0.00,,,0.00,VWS V14.01,2013-08-29 05:08:00,
2013-08-29 01:14:00,62.6,62.6,29.97,NE,34,2.5,2.5,100,0.00,,,0.00,VWS V14.01,2013-08-29 05:14:00,
2013-08-29 01:20:00,62.9,62.9,29.97,NE,34,2.5,2.5,100,0.00,,,0.00,VWS V14.01,2013-08-29 05:20:00,
2013-08-29 01:26:00,62.9,62.9,29.97,NE,34,2.5,2.5,100,0.00,,,0.00,VWS V14.01,2013-08-29 05:26:00,
2013-08-29 01:32:00,62.9,62.9,29.97,NE,34,2.5,2.5,100,0.00,,,0.00,VWS V14.01,2013-08-29 05:32:00,
2013-08-29 01:38:00,63.0,63.0,29.97,NE,34,2.5,2.5,100,0.00,,,0.00,VWS V14.01,2013-08-29 05:38:00,
2013-08-29 01:44:00,62.9,62.9,29.97,NE,34,2.5,2.5,100,0.00,,,0.00,VWS V14.01,2013-08-29 05:44:00,
2013-08-29 01:50:00,63.0,63.0,29.97,NW,318,3.4,3.4,100,0.00,,,0.00,VWS V14.01,2013-08-29 05:50:00,
2013-08-29 01:56:00,63.0,63.0,29.97,NW,318,2.5,2.5,100,0.00,,,0.00,VWS V14.01,2013-08-29 05:56:00,
2013-08-29 02:02:00,63.1,63.1,29.97,NW,318,2.5,2.5,100,0.00,,,0.00,VWS V14.01,2013-08-29 06:02:00,
2013-08-29 02:08:00,62.9,62.9,29.97,NW,318,2.5,2.5,100,0.00,,,0.00,VWS V14.01,2013-08-29 06:08:00,
2013-08-29 02:14:00,63.1,63.1,29.97,NNE,18,2.5,2.5,100,0.00,,,0.00,VWS V14.01,2013-08-29 06:14:00,
2013-08-29 02:20:00,63.0,63.0,29.97,NNE,18,2.5,2.5,100,0.00,,,0.00,VWS V14.01,2013-08-29 06:20:00,
2013-08-29 02:26:00,63.0,63.0,29.97,NNE,18,2.5,2.5,100,0.00,,,0.00,VWS V14.01,2013-08-29 06:26:00,
2013-08-29 02:32:00,63.1,63.1,29.96,NNE,18,2.5,2.5,100,0.00,,,0.00,VWS V14.01,2013-08-29 06:32:00,
2013-08-29 02:38:00,63.0,63.0,29.96,NNE,18,2.5,2.5,100,0.00,,,0.00,VWS V14.01,2013-08-29 06:38:00,
2013-08-29 02:44:00,62.8,62.8,29.96,NE,53,2.5,4.4,100,0.00,,,0.00,VWS V14.01,2013-08-29 06:44:00,
2013-08-29 02:50:00,62.8,62.8,29.96,NNW,345,6.3,6.4,100,0.00,,,0.00,VWS V14.01,2013-08-29 06:50:00,
2013-08-29 02:56:00,62.5,62.5,29.97,NNE,32,2.5,2.5,100,0.00,,,0.00,VWS V14.01,2013-08-29 06:56:00,
2013-08-29 03:02:00,62.6,62.6,29.97,North,7,2.5,2.9,100,0.00,,,0.00,VWS V14.01,2013-08-29 07:02:00,
2013-08-29 03:08:00,62.5,62.5,29.97,NE,49,2.5,2.5,100,0.00,,,0.00,VWS V14.01,2013-08-29 07:08:00,
2013-08-29 03:14:00,62.8,62.8,29.97,NE,49,2.5,2.5,100,0.00,,,0.00,VWS V14.01,2013-08-29 07:14:00,
2013-08-29 03:20:00,62.6,62.6,29.97,NE,49,2.5,2.5,100,0.00,,,0.00,VWS V14.01,2013-08-29 07:20:00,
2013-08-29 03:26:00,62.8,62.8,29.97,NE,49,2.5,2.5,100,0.00,,,0.00,VWS V14.01,2013-08-29 07:26:00,
2013-08-29 03:32:00,62.9,62.9,29.97,NE,49,2.5,2.5,100,0.00,,,0.00,VWS V14.01,2013-08-29 07:32:00,
2013-08-29 03:38:00,63.0,63.0,29.97,NE,49,2.5,2.5,100,0.00,,,0.00,VWS V14.01,2013-08-29 07:38:00,
2013-08-29 03:44:00,63.0,63.0,29.97,NE,49,2.5,2.5,100,0.00,,,0.00,VWS V14.01,2013-08-29 07:44:00,
2013-08-29 03:50:00,63.0,63.0,29.97,NE,49,2.5,2.5,100,0.00,,,0.00,VWS V14.01,2013-08-29 07:50:00,
2013-08-29 03:56:00,63.2,63.2,29.97,NE,49,2.5,2.5,100,0.00,,,0.00,VWS V14.01,2013-08-29 07:56:00,
2013-08-29 04:02:00,63.3,63.3,29.97,NE,49,2.5,2.5,100,0.00,,,0.00,VWS V14.01,2013-08-29 08:02:00,
2013-08-29 04:08:00,63.4,63.4,29.97,NE,49,2.5,2.5,100,0.00,,,0.00,VWS V14.01,2013-08-29 08:08:00,
2013-08-29 04:14:00,63.5,63.5,29.97,NE,49,2.5,2.5,100,0.00,,,0.00,VWS V14.01,2013-08-29 08:14:00,
2013-08-29 04:20:00,63.5,63.5,29.97,NE,49,2.5,2.5,100,0.00,,,0.00,VWS V14.01,2013-08-29 08:20:00,
2013-08-29 04:26:00,63.6,63.6,29.98,NE,49,2.5,2.5,100,0.00,,,0.00,VWS V14.01,2013-08-29 08:26:00,
2013-08-29 04:32:00,63.6,63.6,29.98,East,82,2.5,2.5,100,0.00,,,0.00,VWS V14.01,2013-08-29 08:32:00,
2013-08-29 04:38:00,63.4,63.4,29.98,East,82,2.5,2.5,100,0.00,,,0.00,VWS V14.01,2013-08-29 08:38:00,
2013-08-29 04:44:00,63.4,63.4,29.98,East,82,2.5,2.5,100,0.00,,,0.00,VWS V14.01,2013-08-29 08:44:00,
2013-08-29 04:50:00,63.4,63.4,29.99,East,82,2.5,2.5,100,0.00,,,0.00,VWS V14.01,2013-08-29 08:50:00,
2013-08-29 04:56:00,63.3,63.3,29.99,East,82,2.5,2.5,100,0.00,,,0.00,VWS V14.01,2013-08-29 08:56:00,
2013-08-29 05:02:00,63.3,63.3,29.99,East,82,2.5,2.5,100,0.00,,,0.00,VWS V14.01,2013-08-29 09:02:00,
2013-08-29 05:08:00,63.2,63.2,29.99,East,82,2.5,2.5,100,0.00,,,0.00,VWS V14.01,2013-08-29 09:08:00,
2013-08-29 05:14:00,63.2,63.2,29.99,NNW,339,2.5,4.2,100,0.00,,,0.00,VWS V14.01,2013-08-29 09:14:00,
2013-08-29 05:20:00,63.3,63.3,29.99,NNW,342,2.5,2.5,100,0.00,,,0.00,VWS V14.01,2013-08-29 09:20:00,
2013-08-29 05:26:00,63.2,63.2,29.99,NE,46,2.5,2.5,100,0.00,,,0.00,VWS V14.01,2013-08-29 09:26:00,
2013-08-29 05:32:00,63.3,63.3,30.00,North,349,3.6,4.6,100,0.00,,,0.00,VWS V14.01,2013-08-29 09:32:00,
2013-08-29 05:38:00,63.2,63.2,30.00,West,266,2.5,7.4,100,0.00,,,0.00,VWS V14.01,2013-08-29 09:38:00,
2013-08-29 05:44:00,63.2,63.2,30.00,NE,37,2.5,4.3,100,0.00,,,0.00,VWS V14.01,2013-08-29 09:44:00,
2013-08-29 05:50:00,63.0,63.0,29.99,NNW,333,3.9,7.4,100,0.00,,,0.00,VWS V14.01,2013-08-29 09:50:00,
2013-08-29 05:56:00,63.0,63.0,29.99,NNE,30,2.5,4.2,100,0.00,,,0.00,VWS V14.01,2013-08-29 09:56:00,
2013-08-29 06:02:00,62.8,62.8,30.00,NE,37,4.9,7.8,100,0.00,,,0.00,VWS V14.01,2013-08-29 10:02:00,
2013-08-29 06:08:00,62.8,62.8,30.00,North,10,2.5,4.8,100,0.00,,,0.00,VWS V14.01,2013-08-29 10:08:00,
2013-08-29 06:14:00,62.8,62.8,30.00,ESE,118,3.9,7.0,100,0.00,,,0.00,VWS V14.01,2013-08-29 10:14:00,
2013-08-29 06:20:00,62.7,62.7,30.00,NNE,14,5.2,5.5,100,0.00,,,0.00,VWS V14.01,2013-08-29 10:20:00,
2013-08-29 06:26:00,62.8,62.8,30.01,NW,325,3.5,7.4,100,0.00,,,0.00,VWS V14.01,2013-08-29 10:26:00,
2013-08-29 06:32:00,62.9,62.9,30.01,NNE,22,2.5,5.9,100,0.00,,,0.00,VWS V14.01,2013-08-29 10:32:00,
2013-08-29 06:38:00,62.9,62.9,30.01,WNW,302,2.7,5.2,100,0.00,,,0.00,VWS V14.01,2013-08-29 10:38:00,
2013-08-29 06:44:00,63.1,63.1,30.01,ENE,63,2.5,2.5,100,0.00,,,0.00,VWS V14.01,2013-08-29 10:44:00,
2013-08-29 06:50:00,63.1,63.1,30.01,ENE,68,2.5,6.5,100,0.00,,,0.00,VWS V14.01,2013-08-29 10:50:00,
2013-08-29 06:56:00,63.2,63.2,30.00,North,349,2.5,2.5,100,0.00,,,0.00,VWS V14.01,2013-08-29 10:56:00,
2013-08-29 07:02:00,63.4,63.4,30.00,NNE,14,2.5,5.5,100,0.00,,,0.00,VWS V14.01,2013-08-29 11:02:00,
2013-08-29 07:08:00,63.6,63.6,30.01,NW,311,2.5,3.7,100,0.00,,,0.00,VWS V14.01,2013-08-29 11:08:00,
2013-08-29 07:14:00,63.6,63.6,30.01,NNE,27,2.5,4.6,100,0.00,,,0.00,VWS V14.01,2013-08-29 11:14:00,
2013-08-29 07:20:00,63.9,63.9,30.01,NNE,27,2.5,2.5,100,0.00,,,0.00,VWS V14.01,2013-08-29 11:20:00,
2013-08-29 07:26:00,63.8,63.8,30.01,North,0,2.5,6.1,100,0.00,,,0.00,VWS V14.01,2013-08-29 11:26:00,
2013-08-29 07:32:00,63.9,63.9,30.01,ESE,114,2.5,4.1,100,0.00,,,0.00,VWS V14.01,2013-08-29 11:32:00,
2013-08-29 07:38:00,63.9,63.9,30.01,NW,312,2.5,6.3,100,0.00,,,0.00,VWS V14.01,2013-08-29 11:38:00,
2013-08-29 07:44:00,63.9,63.9,30.01,NE,55,4.1,5.2,100,0.00,,,0.00,VWS V14.01,2013-08-29 11:44:00,
2013-08-29 07:50:00,63.7,63.7,30.01,NW,326,2.5,5.9,100,0.00,,,0.00,VWS V14.01,2013-08-29 11:50:00,
2013-08-29 07:56:00,64.0,64.0,30.01,NNE,24,2.5,4.4,100,0.00,,,0.00,VWS V14.01,2013-08-29 11:56:00,
2013-08-29 08:02:00,64.0,64.0,30.02,ENE,60,2.5,4.8,100,0.00,,,0.00,VWS V14.01,2013-08-29 12:02:00,
2013-08-29 08:08:00,63.9,63.9,30.02,ENE,62,2.5,2.5,100,0.00,,,0.00,VWS V14.01,2013-08-29 12:08:00,
2013-08-29 08:14:00,63.9,63.9,30.02,NW,326,2.5,2.5,100,0.00,,,0.00,VWS V14.01,2013-08-29 12:14:00,
2013-08-29 08:20:00,64.0,64.0,30.02,NW,326,2.5,2.5,100,0.00,,,0.00,VWS V14.01,2013-08-29 12:20:00,
2013-08-29 08:26:00,63.7,63.7,30.03,NNE,14,2.5,4.2,100,0.00,,,0.00,VWS V14.01,2013-08-29 12:26:00,
2013-08-29 08:32:00,63.6,63.6,30.03,ENE,73,2.5,7.4,100,0.00,,,0.00,VWS V14.01,2013-08-29 12:32:00,
2013-08-29 08:38:00,63.7,63.7,30.03,NNE,24,2.5,5.7,100,0.00,,,0.00,VWS V14.01,2013-08-29 12:38:00,
2013-08-29 08:44:00,63.8,63.8,30.03,ESE,115,2.5,2.5,100,0.00,,,0.00,VWS V14.01,2013-08-29 12:44:00,
2013-08-29 08:50:00,63.8,63.8,30.03,NE,52,2.5,2.5,100,0.00,,,0.00,VWS V14.01,2013-08-29 12:50:00,
2013-08-29 08:56:00,63.9,63.9,30.03,NE,52,2.5,2.5,100,0.00,,,0.00,VWS V14.01,2013-08-29 12:56:00,
2013-08-29 09:02:00,63.8,63.8,30.03,NNW,345,4.0,7.1,100,0.00,,,0.00,VWS V14.01,2013-08-29 13:02:00,
2013-08-29 09:08:00,63.5,63.5,30.03,North,3,4.6,4.6,100,0.00,,,0.00,VWS V14.01,2013-08-29 13:08:00,
2013-08-29 09:14:00,63.4,63.4,30.03,North,3,5.1,8.9,100,0.00,,,0.00,VWS V14.01,2013-08-29 13:14:00,
2013-08-29 09:20:00,63.2,63.2,30.03,NNE,22,2.5,5.4,100,0.00,,,0.00,VWS V14.01,2013-08-29 13:20:00,
2013-08-29 09:26:00,63.5,63.5,30.04,NNE,17,3.9,6.0,100,0.00,,,0.00,VWS V14.01,2013-08-29 13:26:00,
2013-08-29 09:32:00,63.3,63.3,30.04,NNE,17,2.5,8.8,100,0.00,,,0.00,VWS V14.01,2013-08-29 13:32:00,
2013-08-29 09:38:00,63.1,63.1,30.04,NNW,347,2.5,6.0,100,0.00,,,0.00,VWS V14.01,2013-08-29 13:38:00,
2013-08-29 09:44:00,63.1,63.1,30.04,NNE,14,2.5,9.6,100,0.00,,,0.00,VWS V14.01,2013-08-29 13:44:00,
2013-08-29 09:50:00,63.2,63.2,30.04,North,349,4.4,5.4,100,0.00,,,0.00,VWS V14.01,2013-08-29 13:50:00,
2013-08-29 09:56:00,63.2,63.2,30.04,North,350,3.9,3.9,100,0.00,,,0.00,VWS V14.01,2013-08-29 13:56:00,
2013-08-29 10:02:00,63.1,63.1,30.05,NE,55,3.2,5.5,100,0.00,,OVC009,0.00,VWS V14.01,2013-08-29 14:02:00,
2013-08-29 10:08:00,62.9,62.9,30.05,ESE,108,3.7,10.4,100,0.00,,OVC009,0.00,VWS V14.01,2013-08-29 14:08:00,
2013-08-29 10:14:00,63.2,63.2,30.05,ESE,120,2.5,2.5,100,0.00,,OVC009,0.00,VWS V14.01,2013-08-29 14:14:00,
2013-08-29 10:20:00,63.7,63.7,30.05,ESE,120,2.5,2.5,100,0.00,,OVC009,0.00,VWS V14.01,2013-08-29 14:20:00,
2013-08-29 10:26:00,63.8,63.8,30.05,WNW,298,2.5,5.4,100,0.00,,OVC009,0.00,VWS V14.01,2013-08-29 14:26:00,
2013-08-29 10:32:00,64.1,64.1,30.05,SE,146,2.5,4.7,100,0.00,,OVC009,0.00,VWS V14.01,2013-08-29 14:32:00,
2013-08-29 10:38:00,64.3,64.3,30.05,North,353,2.5,4.4,100,0.00,,OVC009,0.00,VWS V14.01,2013-08-29 14:38:00,
2013-08-29 10:44:00,64.1,64.1,30.05,North,0,2.5,3.8,100,0.00,,OVC009,0.00,VWS V14.01,2013-08-29 14:44:00,
2013-08-29 10:50:00,64.3,64.3,30.05,NNW,338,2.5,5.2,100,0.00,,OVC009,0.00,VWS V14.01,2013-08-29 14:50:00,
2013-08-29 10:56:00,64.1,64.1,30.05,SSE,163,2.5,7.5,100,0.00,,OVC009,0.00,VWS V14.01,2013-08-29 14:56:00,
2013-08-29 11:02:00,64.1,64.1,30.05,ESE,110,2.5,5.3,100,0.00,,OVC009,0.00,VWS V14.01,2013-08-29 15:02:00,
2013-08-29 11:08:00,64.1,64.1,30.05,ESE,105,3.8,7.2,100,0.00,,OVC009,0.00,VWS V14.01,2013-08-29 15:08:00,
2013-08-29 11:14:00,64.4,64.4,30.05,SSE,155,3.3,5.9,100,0.00,,OVC009,0.00,VWS V14.01,2013-08-29 15:14:00,
2013-08-29 11:20:00,64.4,64.4,30.05,North,1,2.5,5.4,100,0.00,,OVC009,0.00,VWS V14.01,2013-08-29 15:20:00,
2013-08-29 11:26:00,64.4,64.4,30.05,NNE,20,4.5,9.9,100,0.00,,OVC009,0.00,VWS V14.01,2013-08-29 15:26:00,
2013-08-29 11:32:00,64.2,64.2,30.05,South,190,5.4,9.5,100,0.00,,OVC009,0.00,VWS V14.01,2013-08-29 15:32:00,
2013-08-29 11:38:00,64.0,64.0,30.06,North,3,4.1,7.8,100,0.00,,OVC009,0.00,VWS V14.01,2013-08-29 15:38:00,
2013-08-29 11:44:00,64.3,64.3,30.05,ENE,72,3.9,8.4,100,0.00,,OVC009,0.00,VWS V14.01,2013-08-29 15:44:00,
2013-08-29 11:50:00,64.1,64.1,30.05,SE,131,4.0,5.2,100,0.00,,OVC009,0.00,VWS V14.01,2013-08-29 15:50:00,
2013-08-29 11:56:00,64.2,64.2,30.05,NE,35,3.7,8.4,100,0.00,,OVC009,0.00,VWS V14.01,2013-08-29 15:56:00,
2013-08-29 12:02:00,64.0,64.0,30.05,East,91,7.5,8.2,100,0.00,,,0.00,VWS V14.01,2013-08-29 16:02:00,
2013-08-29 12:08:00,64.0,64.0,30.05,NW,309,5.3,6.5,100,0.00,,,0.00,VWS V14.01,2013-08-29 16:08:00,
2013-08-29 12:14:00,63.9,63.9,30.05,NE,49,6.1,9.2,100,0.00,,,0.00,VWS V14.01,2013-08-29 16:14:00,
2013-08-29 12:20:00,63.9,63.9,30.05,East,96,4.4,5.5,100,0.00,,,0.00,VWS V14.01,2013-08-29 16:20:00,
2013-08-29 12:26:00,63.6,63.6,30.05,NNE,22,3.7,5.2,100,0.00,,,0.00,VWS V14.01,2013-08-29 16:26:00,
2013-08-29 12:32:00,63.2,63.2,30.05,NE,37,6.7,7.8,100,0.00,,,0.00,VWS V14.01,2013-08-29 16:32:00,
2013-08-29 12:38:00,63.2,63.2,30.05,NE,55,3.3,5.4,100,0.00,,,0.00,VWS V14.01,2013-08-29 16:38:00,
2013-08-29 12:44:00,63.0,63.0,30.05,SE,131,7.7,9.0,100,0.00,,,0.00,VWS V14.01,2013-08-29 16:44:00,
2013-08-29 12:50:00,62.9,62.9,30.05,NE,42,3.6,5.3,100,0.00,,,0.00,VWS V14.01,2013-08-29 16:50:00,
2013-08-29 12:56:00,63.1,63.1,30.05,NE,53,4.0,7.0,100,0.00,,,0.00,VWS V14.01,2013-08-29 16:56:00,
2013-08-29 13:02:00,62.9,62.9,30.05,NNE,14,3.7,9.1,100,0.00,,,0.00,VWS V14.01,2013-08-29 17:02:00,
2013-08-29 13:08:00,63.0,63.0,30.05,North,1,4.8,5.2,100,0.00,,,0.00,VWS V14.01,2013-08-29 17:08:00,
2013-08-29 13:14:00,63.2,63.2,30.05,NNE,18,4.9,6.3,100,0.00,,,0.00,VWS V14.01,2013-08-29 17:14:00,
2013-08-29 13:20:00,63.3,63.3,30.05,NNW,346,6.9,6.9,100,0.00,,,0.00,VWS V14.01,2013-08-29 17:20:00,
2013-08-29 13:26:00,63.6,63.6,30.05,South,191,4.4,6.1,100,0.00,,,0.00,VWS V14.01,2013-08-29 17:26:00,
2013-08-29 13:32:00,64.0,64.0,30.05,East,94,3.4,10.5,100,0.00,,,0.00,VWS V14.01,2013-08-29 17:32:00,
2013-08-29 13:38:00,63.7,63.7,30.05,ESE,115,2.5,6.7,100,0.00,,,0.00,VWS V14.01,2013-08-29 17:38:00,
2013-08-29 13:44:00,63.7,63.7,30.05,NNW,339,5.0,5.4,100,0.00,,,0.00,VWS V14.01,2013-08-29 17:44:00,
2013-08-29 13:50:00,64.1,64.1,30.05,ENE,62,2.5,6.0,100,0.00,,,0.00,VWS V14.01,2013-08-29 17:50:00,
2013-08-29 13:56:00,64.2,64.2,30.05,NE,37,3.9,13.7,100,0.00,,,0.00,VWS V14.01,2013-08-29 17:56:00,
2013-08-29 14:02:00,64.4,64.4,30.05,SSE,149,5.4,8.5,100,0.00,,,0.00,VWS V14.01,2013-08-29 18:02:00,
2013-08-29 14:08:00,64.1,64.1,30.05,East,80,3.7,6.5,100,0.00,,,0.00,VWS V14.01,2013-08-29 18:08:00,
2013-08-29 14:14:00,64.0,64.0,30.05,North,359,5.6,7.6,100,0.00,,,0.00,VWS V14.01,2013-08-29 18:14:00,
2013-08-29 14:20:00,64.1,64.1,30.04,East,86,6.5,9.9,100,0.00,,,0.00,VWS V14.01,2013-08-29 18:20:00,
2013-08-29 14:26:00,64.6,64.6,30.04,SSE,160,4.6,7.9,100,0.00,,,0.00,VWS V14.01,2013-08-29 18:26:00,
2013-08-29 14:32:00,64.3,64.3,30.04,North,8,4.4,11.9,100,0.00,,,0.00,VWS V14.01,2013-08-29 18:32:00,
2013-08-29 14:38:00,64.4,64.4,30.05,NW,326,3.2,4.6,100,0.00,,,0.00,VWS V14.01,2013-08-29 18:38:00,
2013-08-29 14:44:00,63.8,63.8,30.05,North,3,7.0,9.0,100,0.00,,,0.00,VWS V14.01,2013-08-29 18:44:00,
2013-08-29 14:50:00,63.4,63.4,30.05,North,359,5.5,7.1,100,0.00,,,0.00,VWS V14.01,2013-08-29 18:50:00,
2013-08-29 14:56:00,63.9,63.9,30.05,East,84,4.9,7.2,100,0.00,,,0.00,VWS V14.01,2013-08-29 18:56:00,
2013-08-29 15:02:00,64.0,64.0,30.05,South,177,7.1,7.5,100,0.00,,,0.00,VWS V14.01,2013-08-29 19:02:00,
2013-08-29 15:08:00,64.1,64.1,30.05,NE,53,4.7,5.5,100,0.00,,,0.00,VWS V14.01,2013-08-29 19:08:00,
2013-08-29 15:14:00,63.6,63.6,30.05,North,350,5.2,6.7,100,0.00,,OVC011,0.00,VWS V14.01,2013-08-29 19:14:00,
2013-08-29 15:20:00,63.8,63.8,30.05,South,174,4.1,7.8,100,0.00,,OVC011,0.00,VWS V14.01,2013-08-29 19:20:00,
2013-08-29 15:26:00,63.8,63.8,30.05,SSE,155,4.7,10.8,100,0.00,,OVC011,0.00,VWS V14.01,2013-08-29 19:26:00,
2013-08-29 15:32:00,63.3,63.3,30.05,North,357,5.3,6.9,100,0.00,,OVC011,0.00,VWS V14.01,2013-08-29 19:32:00,
2013-08-29 15:38:00,63.2,63.2,30.05,NNW,338,4.9,8.3,100,0.00,,OVC011,0.00,VWS V14.01,2013-08-29 19:38:00,
2013-08-29 15:44:00,63.3,63.3,30.05,NE,37,5.4,6.5,100,0.00,,OVC011,0.00,VWS V14.01,2013-08-29 19:44:00,
2013-08-29 15:50:00,63.7,63.7,30.05,ENE,59,4.9,6.7,100,0.00,,OVC011,0.00,VWS V14.01,2013-08-29 19:50:00,
2013-08-29 15:56:00,63.2,63.2,30.05,North,359,6.5,11.0,100,0.00,,OVC011,0.00,VWS V14.01,2013-08-29 19:56:00,
2013-08-29 16:02:00,63.1,63.1,30.06,East,83,4.4,6.1,100,0.00,,OVC011,0.00,VWS V14.01,2013-08-29 20:02:00,
2013-08-29 16:08:00,62.7,62.7,30.06,ENE,63,3.4,7.1,100,0.00,,OVC011,0.00,VWS V14.01,2013-08-29 20:08:00,
2013-08-29 16:14:00,62.5,62.5,30.06,ENE,73,5.7,8.3,100,0.00,,OVC011,0.00,VWS V14.01,2013-08-29 20:14:00,
2013-08-29 16:20:00,63.0,63.0,30.06,East,89,3.3,6.8,100,0.00,,OVC011,0.00,VWS V14.01,2013-08-29 20:20:00,
2013-08-29 16:26:00,62.8,62.8,30.06,NNE,24,4.2,10.5,100,0.00,,OVC011,0.00,VWS V14.01,2013-08-29 20:26:00,
2013-08-29 16:32:00,62.8,62.8,30.06,East,82,4.6,7.5,100,0.00,,OVC011,0.00,VWS V14.01,2013-08-29 20:32:00,
2013-08-29 16:38:00,63.1,63.1,30.06,East,96,4.2,6.6,100,0.00,,OVC011,0.00,VWS V14.01,2013-08-29 20:38:00,
2013-08-29 16:44:00,62.8,62.8,30.06,ENE,72,3.2,5.0,100,0.00,,OVC011,0.00,VWS V14.01,2013-08-29 20:44:00,
2013-08-29 16:50:00,62.7,62.7,30.06,SE,129,5.5,6.0,100,0.00,,OVC011,0.00,VWS V14.01,2013-08-29 20:50:00,
2013-08-29 16:56:00,62.5,62.5,30.06,NE,48,5.2,9.4,100,0.00,,OVC011,0.00,VWS V14.01,2013-08-29 20:56:00,
2013-08-29 17:02:00,62.4,62.4,30.06,South,174,8.2,8.5,100,0.00,,OVC012,0.00,VWS V14.01,2013-08-29 21:02:00,
2013-08-29 17:08:00,62.3,62.3,30.06,NW,325,4.4,6.0,100,0.00,,OVC012,0.00,VWS V14.01,2013-08-29 21:08:00,
2013-08-29 17:14:00,61.8,61.8,30.06,ESE,104,4.1,6.6,100,0.00,,OVC012,0.00,VWS V14.01,2013-08-29 21:14:00,
2013-08-29 17:20:00,61.8,61.8,30.07,SSE,167,8.3,8.3,100,0.00,,OVC012,0.00,VWS V14.01,2013-08-29 21:20:00,
2013-08-29 17:26:00,61.9,61.9,30.07,SE,124,3.4,5.9,100,0.00,,OVC012,0.00,VWS V14.01,2013-08-29 21:26:00,
2013-08-29 17:32:00,61.7,61.7,30.07,NNE,17,4.9,5.7,100,0.00,,OVC012,0.00,VWS V14.01,2013-08-29 21:32:00,
2013-08-29 17:38:00,61.5,61.5,30.07,NNE,17,4.8,7.5,100,0.00,,OVC012,0.00,VWS V14.01,2013-08-29 21:38:00,
2013-08-29 17:44:00,61.3,61.3,30.07,NNE,24,4.4,8.8,100,0.00,,OVC012,0.00,VWS V14.01,2013-08-29 21:44:00,
2013-08-29 17:50:00,61.5,61.5,30.07,WSW,245,3.5,5.4,100,0.00,,OVC012,0.00,VWS V14.01,2013-08-29 21:50:00,
2013-08-29 17:56:00,61.4,61.4,30.07,NE,35,4.5,8.0,100,0.00,,OVC012,0.00,VWS V14.01,2013-08-29 21:56:00,
2013-08-29 18:02:00,61.4,61.4,30.07,ENE,59,2.5,6.3,100,0.00,,OVC020,0.00,VWS V14.01,2013-08-29 22:02:00,
2013-08-29 18:08:00,61.3,61.3,30.07,NE,41,5.0,6.8,100,0.00,,OVC020,0.00,VWS V14.01,2013-08-29 22:08:00,
2013-08-29 18:14:00,61.4,61.4,30.08,NNE,30,3.7,4.9,100,0.00,,OVC020,0.00,VWS V14.01,2013-08-29 22:14:00,
2013-08-29 18:20:00,61.4,61.4,30.07,NE,38,4.1,5.7,100,0.00,,OVC020,0.00,VWS V14.01,2013-08-29 22:20:00,
2013-08-29 18:26:00,61.2,61.2,30.07,NNE,21,3.5,9.8,100,0.00,,OVC020,0.00,VWS V14.01,2013-08-29 22:26:00,
2013-08-29 18:32:00,61.3,61.3,30.07,East,90,2.8,4.9,100,0.00,,OVC020,0.00,VWS V14.01,2013-08-29 22:32:00,
2013-08-29 18:38:00,61.2,61.2,30.07,NE,55,4.1,7.2,100,0.00,,OVC020,0.00,VWS V14.01,2013-08-29 22:38:00,
2013-08-29 18:44:00,61.2,61.2,30.07,NNW,339,3.9,6.9,100,0.00,,OVC020,0.00,VWS V14.01,2013-08-29 22:44:00,
2013-08-29 18:50:00,61.3,61.3,30.07,South,184,5.6,11.3,100,0.00,,OVC020,0.00,VWS V14.01,2013-08-29 22:50:00,
2013-08-29 18:56:00,60.9,60.9,30.07,SSE,163,5.7,6.3,100,0.00,,OVC020,0.00,VWS V14.01,2013-08-29 22:56:00,
2013-08-29 19:02:00,61.0,61.0,30.07,South,187,5.5,5.5,100,0.00,,OVC060,0.00,VWS V14.01,2013-08-29 23:02:00,
2013-08-29 19:08:00,60.8,60.8,30.07,SSE,153,8.0,8.1,100,0.00,,OVC060,0.00,VWS V14.01,2013-08-29 23:08:00,
2013-08-29 19:14:00,60.9,60.9,30.07,ENE,62,2.5,9.0,100,0.00,,OVC060,0.00,VWS V14.01,2013-08-29 23:14:00,
2013-08-29 19:20:00,60.8,60.8,30.06,NE,48,4.9,7.3,100,0.00,,OVC060,0.00,VWS V14.01,2013-08-29 23:20:00,
2013-08-29 19:26:00,60.9,60.9,30.06,ESE,121,4.1,7.3,100,0.00,,OVC060,0.00,VWS V14.01,2013-08-29 23:26:00,
2013-08-29 19:32:00,60.7,60.7,30.06,ENE,73,3.4,7.4,100,0.00,,OVC060,0.00,VWS V14.01,2013-08-29 23:32:00,
2013-08-29 19:38:00,60.5,60.5,30.06,South,173,4.0,5.2,100,0.00,,OVC060,0.00,VWS V14.01,2013-08-29 23:38:00,
2013-08-29 19:44:00,60.6,60.6,30.06,NNW,347,2.5,4.2,100,0.00,,OVC060,0.00,VWS V14.01,2013-08-29 23:44:00,
2013-08-29 19:50:00,60.7,60.7,30.06,ENE,59,2.5,3.0,100,0.00,,OVC060,0.00,VWS V14.01,2013-08-29 23:50:00,
2013-08-29 19:56:00,60.6,60.6,30.06,North,0,3.4,5.6,100,0.00,,OVC060,0.00,VWS V14.01,2013-08-29 23:56:00,
2013-08-29 20:02:00,60.8,60.8,30.06,ENE,60,3.5,5.7,100,0.00,,OVC015,0.00,VWS V14.01,2013-08-30 00:02:00,
2013-08-29 20:08:00,60.8,60.8,30.06,SE,127,2.5,2.5,100,0.00,,OVC015,0.00,VWS V14.01,2013-08-30 00:08:00,
2013-08-29 20:14:00,61.0,61.0,30.06,South,173,5.9,6.2,100,0.00,,OVC015,0.00,VWS V14.01,2013-08-30 00:14:00,
2013-08-29 20:20:00,60.8,60.8,30.06,NNE,24,2.5,2.5,100,0.00,,OVC015,0.00,VWS V14.01,2013-08-30 00:20:00,
2013-08-29 20:26:00,61.0,61.0,30.06,NNE,24,2.5,2.5,100,0.00,,OVC015,0.00,VWS V14.01,2013-08-30 00:26:00,
2013-08-29 20:32:00,60.8,60.8,30.06,NNE,24,2.5,2.5,100,0.00,,OVC015,0.00,VWS V14.01,2013-08-30 00:32:00,
2013-08-29 20:38:00,60.9,60.9,30.06,NNE,24,2.5,3.0,100,0.00,,OVC015,0.00,VWS V14.01,2013-08-30 00:38:00,
2013-08-29 20:44:00,60.9,60.9,30.05,NNE,24,2.5,2.5,100,0.00,,OVC015,0.00,VWS V14.01,2013-08-30 00:44:00,
2013-08-29 20:50:00,60.9,60.9,30.05,SE,132,2.5,2.5,100,0.00,,OVC015,0.00,VWS V14.01,2013-08-30 00:50:00,
2013-08-29 20:56:00,61.0,61.0,30.05,ENE,70,2.5,2.5,100,0.00,,OVC015,0.00,VWS V14.01,2013-08-30 00:56:00,
2013-08-29 21:02:00,60.9,60.9,30.05,ESE,110,2.5,2.5,100,0.00,,OVC022,0.00,VWS V14.01,2013-08-30 01:02:00,
2013-08-29 21:08:00,61.2,61.2,30.05,ESE,110,2.5,2.5,100,0.00,,OVC022,0.00,VWS V14.01,2013-08-30 01:08:00,
2013-08-29 21:14:00,61.2,61.2,30.05,ESE,110,2.5,2.5,100,0.00,,OVC022,0.00,VWS V14.01,2013-08-30 01:14:00,
2013-08-29 21:20:00,61.0,61.0,30.05,ESE,110,2.5,2.5,100,0.00,,OVC022,0.00,VWS V14.01,2013-08-30 01:20:00,
2013-08-29 21:26:00,61.1,61.1,30.05,ESE,110,2.5,2.5,100,0.00,,OVC022,0.00,VWS V14.01,2013-08-30 01:26:00,
2013-08-29 21:32:00,61.2,61.2,30.05,ESE,110,2.5,2.5,100,0.00,,OVC022,0.00,VWS V14.01,2013-08-30 01:32:00,
2013-08-29 21:38:00,61.1,61.1,30.06,ESE,110,2.5,2.5,100,0.00,,OVC022,0.00,VWS V14.01,2013-08-30 01:38:00,
2013-08-29 21:44:00,60.9,60.9,30.05,ESE,110,2.5,2.5,100,0.00,,OVC022,0.00,VWS V14.01,2013-08-30 01:44:00,
2013-08-29 21:50:00,60.9,60.9,30.05,ESE,110,2.5,2.5,100,0.00,,OVC022,0.00,VWS V14.01,2013-08-30 01:50:00,
2013-08-29 21:56:00,60.9,60.9,30.06,ESE,110,2.5,2.5,100,0.00,,OVC022,0.00,VWS V14.01,2013-08-30 01:56:00,
2013-08-29 22:02:00,60.7,60.7,30.06,NE,46,2.5,2.5,100,0.00,,OVC022,0.00,VWS V14.01,2013-08-30 02:02:00,
2013-08-29 22:08:00,60.5,60.5,30.06,NE,46,2.5,2.5,100,0.00,,OVC022,0.00,VWS V14.01,2013-08-30 02:08:00,
2013-08-29 22:14:00,60.5,60.5,30.06,NE,46,2.5,2.5,100,0.00,,OVC022,0.00,VWS V14.01,2013-08-30 02:14:00,
2013-08-29 22:20:00,60.6,60.6,30.06,WNW,290,2.5,3.1,100,0.00,,OVC022,0.00,VWS V14.01,2013-08-30 02:20:00,
2013-08-29 22:26:00,60.7,60.7,30.06,WNW,290,2.5,2.5,100,0.00,,OVC022,0.00,VWS V14.01,2013-08-30 02:26:00,
2013-08-29 22:32:00,60.6,60.6,30.05,North,0,2.5,3.8,100,0.00,,OVC022,0.00,VWS V14.01,2013-08-30 02:32:00,
2013-08-29 22:38:00,60.8,60.8,30.05,NW,312,2.5,3.0,100,0.00,,OVC022,0.00,VWS V14.01,2013-08-30 02:38:00,
2013-08-29 22:44:00,60.9,60.9,30.05,NW,312,2.5,2.5,100,0.00,,OVC022,0.00,VWS V14.01,2013-08-30 02:44:00,
2013-08-29 22:50:00,61.0,61.0,30.05,NNE,14,2.5,2.5,100,0.00,,OVC022,0.00,VWS V14.01,2013-08-30 02:50:00,
2013-08-29 22:56:00,60.9,60.9,30.05,NE,44,2.5,2.5,100,0.00,,OVC022,0.00,VWS V14.01,2013-08-30 02:56:00,
2013-08-29 23:02:00,60.6,60.6,30.05,North,359,3.9,4.3,100,0.00,,OVC019,0.00,VWS V14.01,2013-08-30 03:02:00,
2013-08-29 23:08:00,60.5,60.5,30.05,NW,315,4.1,4.4,100,0.00,,OVC019,0.00,VWS V14.01,2013-08-30 03:08:00,
2013-08-29 23:14:00,60.4,60.4,30.04,NNW,330,2.5,3.1,100,0.00,,OVC019,0.00,VWS V14.01,2013-08-30 03:14:00,
2013-08-29 23:20:00,60.2,60.2,30.04,NNW,346,2.5,2.5,100,0.00,,OVC019,0.00,VWS V14.01,2013-08-30 03:20:00,
2013-08-29 23:26:00,60.4,60.4,30.04,WNW,284,2.5,2.5,100,0.00,,OVC019,0.00,VWS V14.01,2013-08-30 03:26:00,
2013-08-29 23:32:00,60.3,60.3,30.03,WNW,284,2.5,2.5,100,0.00,,OVC019,0.00,VWS V14.01,2013-08-30 03:32:00,
2013-08-29 23:38:00,60.3,60.3,30.03,WNW,284,2.5,2.5,100,0.00,,OVC019,0.00,VWS V14.01,2013-08-30 03:38:00,
2013-08-29 23:44:00,60.3,60.3,30.03,WNW,284,2.5,2.5,100,0.00,,OVC019,0.00,VWS V14.01,2013-08-30 03:44:00,
2013-08-29 23:50:00,60.2,60.2,30.03,WNW,285,2.5,2.5,100,0.00,,OVC019,0.00,VWS V14.01,2013-08-30 03:50:00,